createdAt,value
2017-10-12T00:01:21.095Z,75.80
2017-10-12T00:03:47.835Z,76.20
2017-10-12T00:06:14.627Z,76.30
2017-10-12T00:08:41.582Z,78.60
2017-10-12T00:11:10.095Z,78.50
2017-10-12T00:13:37.517Z,77.30
2017-10-12T00:16:05.693Z,77.20
2017-10-12T00:18:33.663Z,78.10
2017-10-12T00:20:59.972Z,78.00
2017-10-12T00:23:26.185Z,77.30
2017-10-12T00:25:52.383Z,77.50
2017-10-12T00:28:18.624Z,78.60
2017-10-12T00:30:45.349Z,79.00
2017-10-12T00:33:12.285Z,77.80
2017-10-12T00:35:39.911Z,77.00
2017-10-12T00:38:06.631Z,76.90
2017-10-12T00:40:33.002Z,77.30
2017-10-12T00:42:59.215Z,77.00
2017-10-12T00:45:25.671Z,77.20
2017-10-12T00:47:53.035Z,77.30
2017-10-12T00:50:20.587Z,78.20
2017-10-12T00:52:48.605Z,77.70
2017-10-12T00:55:15.346Z,77.70
2017-10-12T00:57:41.656Z,77.40
2017-10-12T01:00:07.900Z,78.60
2017-10-12T01:02:34.134Z,78.00
2017-10-12T01:05:00.606Z,77.60
2017-10-12T01:07:27.656Z,77.30
2017-10-12T01:09:54.759Z,77.30
2017-10-12T01:12:21.012Z,77.30
2017-10-12T01:14:47.912Z,77.20
2017-10-12T01:17:14.287Z,76.80
2017-10-12T01:19:40.656Z,76.50
2017-10-12T01:22:07.157Z,77.00
2017-10-12T01:24:34.152Z,76.80
2017-10-12T01:27:01.293Z,76.60
2017-10-12T01:29:27.827Z,76.50
2017-10-12T01:31:54.934Z,77.00
2017-10-12T01:34:21.197Z,77.00
2017-10-12T01:36:48.090Z,76.80
2017-10-12T01:39:14.830Z,76.50
2017-10-12T01:41:41.542Z,77.00
2017-10-12T01:44:08.591Z,76.90
2017-10-12T01:46:34.815Z,76.80
2017-10-12T01:49:01.048Z,77.20
2017-10-12T01:51:27.277Z,77.70
2017-10-12T01:53:54.131Z,77.90
2017-10-12T01:56:20.461Z,78.00
2017-10-12T01:58:47.343Z,78.50
2017-10-12T02:01:13.795Z,78.50
2017-10-12T02:03:40.290Z,78.60
2017-10-12T02:06:07.312Z,78.00
2017-10-12T02:08:33.853Z,78.00
2017-10-12T02:11:00.448Z,78.30
2017-10-12T02:13:27.398Z,77.70
2017-10-12T02:15:53.778Z,77.60
2017-10-12T02:18:21.954Z,77.50
2017-10-12T02:20:49.003Z,77.00
2017-10-12T02:23:15.284Z,76.90
2017-10-12T02:25:41.508Z,77.10
2017-10-12T02:28:07.746Z,76.70
2017-10-12T02:30:34.152Z,76.70
2017-10-12T02:33:01.235Z,76.70
2017-10-12T02:35:27.442Z,76.70
2017-10-12T02:37:54.706Z,76.70
2017-10-12T02:40:23.451Z,77.40
2017-10-12T02:42:50.438Z,77.60
2017-10-12T02:45:16.671Z,77.60
2017-10-12T02:47:42.862Z,78.80
2017-10-12T02:50:10.110Z,78.60
2017-10-12T02:52:37.365Z,78.60
2017-10-12T02:55:04.794Z,78.10
2017-10-12T02:57:39.102Z,78.10
2017-10-12T03:00:06.323Z,77.70
2017-10-12T03:02:33.064Z,76.90
2017-10-12T03:05:00.280Z,77.10
2017-10-12T03:07:27.347Z,76.80
2017-10-12T03:09:53.824Z,76.90
2017-10-12T03:12:21.562Z,77.30
2017-10-12T03:14:48.182Z,77.30
2017-10-12T03:17:15.225Z,77.90
2017-10-12T03:19:42.182Z,77.80
2017-10-12T03:22:09.801Z,78.40
2017-10-12T03:24:36.913Z,78.20
2017-10-12T03:27:04.236Z,79.60
2017-10-12T03:29:31.276Z,78.20
2017-10-12T03:31:58.330Z,78.30
2017-10-12T03:34:24.552Z,78.20
2017-10-12T03:36:52.264Z,77.60
2017-10-12T03:39:18.447Z,77.60
2017-10-12T03:41:44.684Z,78.10
2017-10-12T03:44:11.467Z,77.60
2017-10-12T03:46:39.196Z,77.40
2017-10-12T03:49:05.751Z,77.30
2017-10-12T03:51:32.029Z,77.90
2017-10-12T03:53:59.146Z,77.60
2017-10-12T03:56:26.114Z,77.40
2017-10-12T03:58:53.456Z,77.50
2017-10-12T04:01:20.187Z,77.50
2017-10-12T04:03:46.942Z,77.30
2017-10-12T04:06:13.314Z,76.90
2017-10-12T04:08:41.301Z,77.20
2017-10-12T04:11:07.749Z,77.10
2017-10-12T04:13:34.862Z,77.80
2017-10-12T04:16:01.701Z,77.70
2017-10-12T04:18:29.694Z,77.70
2017-10-12T04:20:55.959Z,77.30
2017-10-12T04:23:22.436Z,77.20
2017-10-12T04:25:49.616Z,77.80
2017-10-12T04:28:15.945Z,77.30
2017-10-12T04:30:42.384Z,77.40
2017-10-12T04:33:09.366Z,77.90
2017-10-12T04:35:36.357Z,77.70
2017-10-12T04:38:02.892Z,77.70
2017-10-12T04:40:29.906Z,76.90
2017-10-12T04:42:57.467Z,78.10
2017-10-12T04:45:24.210Z,78.00
2017-10-12T04:47:50.974Z,78.50
2017-10-12T04:50:17.179Z,78.80
2017-10-12T04:52:43.914Z,79.80
2017-10-12T04:55:10.961Z,78.20
2017-10-12T04:57:37.871Z,78.20
2017-10-12T05:00:04.113Z,78.20
2017-10-12T05:02:31.201Z,77.90
2017-10-12T05:04:58.453Z,77.90
2017-10-12T05:07:25.191Z,78.00
2017-10-12T05:09:52.741Z,78.00
2017-10-12T05:12:20.240Z,78.00
2017-10-12T05:14:46.877Z,77.80
2017-10-12T05:17:13.069Z,77.50
2017-10-12T05:19:39.400Z,77.80
2017-10-12T05:22:05.622Z,78.00
2017-10-12T05:24:32.749Z,78.80
2017-10-12T05:27:00.689Z,80.00
2017-10-12T05:29:28.316Z,79.60
2017-10-12T05:31:55.336Z,79.60
2017-10-12T05:34:22.326Z,80.20
2017-10-12T05:36:49.313Z,80.00
2017-10-12T05:39:16.324Z,79.40
2017-10-12T05:41:42.522Z,79.30
2017-10-12T05:44:09.645Z,79.30
2017-10-12T05:46:36.584Z,80.80
2017-10-12T05:49:04.253Z,81.40
2017-10-12T05:51:31.698Z,81.40
2017-10-12T05:53:58.292Z,81.50
2017-10-12T05:56:24.929Z,80.30
2017-10-12T05:58:52.109Z,80.00
2017-10-12T06:01:19.117Z,79.60
2017-10-12T06:03:45.443Z,79.60
2017-10-12T06:06:11.646Z,79.70
2017-10-12T06:08:38.087Z,79.90
2017-10-12T06:11:05.007Z,80.20
2017-10-12T06:13:32.392Z,79.70
2017-10-12T06:15:58.928Z,79.70
2017-10-12T06:18:25.213Z,80.30
2017-10-12T06:20:53.279Z,80.50
2017-10-12T06:23:21.067Z,80.40
2017-10-12T06:28:20.572Z,80.10
2017-10-12T06:30:48.626Z,80.00
2017-10-12T06:33:15.046Z,79.90
2017-10-12T06:35:41.879Z,79.80
2017-10-12T06:38:08.387Z,79.70
2017-10-12T06:40:35.238Z,79.70
2017-10-12T06:43:03.370Z,79.50
2017-10-12T06:45:30.759Z,79.90
2017-10-12T06:47:57.766Z,80.60
2017-10-12T06:50:25.431Z,80.50
2017-10-12T06:52:52.412Z,80.60
2017-10-12T06:55:19.011Z,80.60
2017-10-12T06:57:46.399Z,80.40
2017-10-12T07:00:13.933Z,80.80
2017-10-12T07:02:40.217Z,80.80
2017-10-12T07:05:07.117Z,80.20
2017-10-12T07:07:34.240Z,80.70
2017-10-12T07:10:01.193Z,80.70
2017-10-12T07:12:28.148Z,82.00
2017-10-12T07:14:55.523Z,81.90
2017-10-12T07:17:21.808Z,81.90
2017-10-12T07:19:48.684Z,82.30
2017-10-12T07:22:15.748Z,83.70
2017-10-12T07:24:42.382Z,83.60
2017-10-12T07:27:09.035Z,83.10
2017-10-12T07:29:36.747Z,81.00
2017-10-12T07:32:04.684Z,80.80
2017-10-12T07:34:31.911Z,80.80
2017-10-12T07:36:58.933Z,78.30
2017-10-12T07:39:25.155Z,79.00
2017-10-12T07:41:52.275Z,78.00
2017-10-12T07:44:18.548Z,75.50
2017-10-12T07:46:45.191Z,73.40
2017-10-12T07:49:11.684Z,73.40
2017-10-12T07:51:38.657Z,74.50
2017-10-12T07:54:05.695Z,74.60
2017-10-12T07:56:33.095Z,71.80
2017-10-12T07:58:59.429Z,70.20
2017-10-12T08:01:26.264Z,70.80
2017-10-12T08:03:52.497Z,73.10
2017-10-12T08:06:19.288Z,72.80
2017-10-12T08:08:46.506Z,70.20
2017-10-12T08:11:12.998Z,70.20
2017-10-12T08:13:39.688Z,69.90
2017-10-12T08:16:07.240Z,71.30
2017-10-12T08:18:33.538Z,70.40
2017-10-12T08:21:00.716Z,70.90
2017-10-12T08:23:27.139Z,70.00
2017-10-12T08:25:53.950Z,70.90
2017-10-12T08:28:20.849Z,71.60
2017-10-12T08:30:47.892Z,71.90
2017-10-12T08:33:14.938Z,72.00
2017-10-12T08:35:41.729Z,72.00
2017-10-12T08:38:08.000Z,72.10
2017-10-12T08:40:35.804Z,72.70
2017-10-12T08:43:02.130Z,74.50
2017-10-12T08:45:29.174Z,71.10
2017-10-12T08:47:56.404Z,69.00
2017-10-12T08:50:23.905Z,67.10
2017-10-12T08:52:50.778Z,67.10
2017-10-12T08:55:18.251Z,65.90
2017-10-12T08:57:45.134Z,65.80
2017-10-12T09:00:11.813Z,64.80
2017-10-12T09:02:39.802Z,64.80
2017-10-12T09:05:06.292Z,64.80
2017-10-12T09:07:33.031Z,64.90
2017-10-12T09:09:59.741Z,64.30
2017-10-12T09:12:25.975Z,65.60
2017-10-12T09:14:52.509Z,65.90
2017-10-12T09:17:18.890Z,65.40
2017-10-12T09:19:45.102Z,65.20
2017-10-12T09:22:11.804Z,65.50
2017-10-12T09:24:38.367Z,66.30
2017-10-12T09:27:05.741Z,66.30
2017-10-12T09:29:32.496Z,66.80
2017-10-12T09:32:00.553Z,66.50
2017-10-12T09:34:27.490Z,66.50
2017-10-12T09:36:55.036Z,67.90
2017-10-12T09:39:22.179Z,67.90
2017-10-12T09:41:48.944Z,68.40
2017-10-12T09:44:15.240Z,68.40
2017-10-12T09:46:41.790Z,68.80
2017-10-12T09:49:08.324Z,68.50
2017-10-12T09:51:34.620Z,68.50
2017-10-12T09:54:01.883Z,69.20
2017-10-12T09:56:28.632Z,69.20
2017-10-12T09:58:55.507Z,69.20
2017-10-12T10:01:23.447Z,69.30
2017-10-12T10:03:49.760Z,69.80
2017-10-12T10:06:16.747Z,69.90
2017-10-12T10:08:43.455Z,69.90
2017-10-12T10:11:10.532Z,70.50
2017-10-12T10:13:37.521Z,70.30
2017-10-12T10:16:05.053Z,72.20
2017-10-12T10:18:32.347Z,70.80
2017-10-12T10:21:00.012Z,72.00
2017-10-12T10:23:27.640Z,72.00
2017-10-12T10:25:53.911Z,72.00
2017-10-12T10:28:20.159Z,71.80
2017-10-12T10:30:46.671Z,71.20
2017-10-12T10:33:14.409Z,71.50
2017-10-12T10:35:42.186Z,71.40
2017-10-12T10:38:09.868Z,71.10
2017-10-12T10:40:36.938Z,71.00
2017-10-12T10:43:03.930Z,71.20
2017-10-12T10:45:31.174Z,70.80
2017-10-12T10:47:58.687Z,70.00
2017-10-12T10:50:26.072Z,69.90
2017-10-12T10:52:52.975Z,70.20
2017-10-12T10:55:19.237Z,69.20
2017-10-12T10:57:45.593Z,69.00
2017-10-12T11:00:12.623Z,70.20
2017-10-12T11:02:38.905Z,69.50
2017-10-12T11:05:05.151Z,68.90
2017-10-12T11:07:31.365Z,68.80
2017-10-12T11:09:58.197Z,69.50
2017-10-12T11:12:25.848Z,69.60
2017-10-12T11:14:52.864Z,70.10
2017-10-12T11:17:19.687Z,70.10
2017-10-12T11:19:47.715Z,70.90
2017-10-12T11:22:14.447Z,70.90
2017-10-12T11:24:41.917Z,71.40
2017-10-12T11:27:09.350Z,71.60
2017-10-12T11:29:37.550Z,71.60
2017-10-12T11:32:04.764Z,72.10
2017-10-12T11:34:31.633Z,72.00
2017-10-12T11:36:58.709Z,72.40
2017-10-12T11:39:25.413Z,72.40
2017-10-12T11:41:52.970Z,72.90
2017-10-12T11:44:20.295Z,72.50
2017-10-12T11:46:47.125Z,72.50
2017-10-12T11:49:14.168Z,72.50
2017-10-12T11:51:40.514Z,72.40
2017-10-12T11:54:07.758Z,72.00
2017-10-12T11:56:34.091Z,71.30
2017-10-12T11:59:00.295Z,72.00
2017-10-12T12:01:27.401Z,71.40
2017-10-12T12:03:54.272Z,71.70
2017-10-12T12:06:22.122Z,71.40
2017-10-12T12:08:48.413Z,71.40
2017-10-12T12:11:14.819Z,70.00
2017-10-12T12:13:41.744Z,70.80
2017-10-12T12:16:07.968Z,70.00
2017-10-12T12:18:34.203Z,67.70
2017-10-12T12:21:00.441Z,68.00
2017-10-12T12:23:26.650Z,68.30
2017-10-12T12:25:53.678Z,67.30
2017-10-12T12:28:20.854Z,67.10
2017-10-12T12:30:47.303Z,65.80
2017-10-12T12:33:14.358Z,64.40
2017-10-12T12:35:40.908Z,64.30
2017-10-12T12:38:07.974Z,66.60
2017-10-12T12:40:36.281Z,64.80
2017-10-12T12:43:03.329Z,65.70
2017-10-12T12:45:30.646Z,65.60
2017-10-12T12:47:58.081Z,65.30
2017-10-12T12:50:25.884Z,65.20
2017-10-12T12:52:52.182Z,65.20
2017-10-12T12:55:19.004Z,65.80
2017-10-12T12:57:46.225Z,64.70
2017-10-12T13:00:14.135Z,65.60
2017-10-12T13:02:41.880Z,66.00
2017-10-12T13:05:09.186Z,66.20
2017-10-12T13:07:36.997Z,66.00
2017-10-12T13:10:04.420Z,66.60
2017-10-12T13:12:30.809Z,66.60
2017-10-12T13:14:58.910Z,67.00
2017-10-12T13:17:26.557Z,67.20
2017-10-12T13:19:54.773Z,67.50
2017-10-12T13:22:23.517Z,67.60
2017-10-12T13:24:51.129Z,67.80
2017-10-12T13:27:17.944Z,67.80
2017-10-12T13:29:45.024Z,68.00
2017-10-12T13:32:11.394Z,68.00
2017-10-12T13:34:38.356Z,68.30
2017-10-12T13:37:05.362Z,68.10
2017-10-12T13:39:31.685Z,68.00
2017-10-12T13:41:59.469Z,68.20
2017-10-12T13:44:25.730Z,68.20
2017-10-12T13:46:52.855Z,68.40
2017-10-12T13:49:19.147Z,68.40
2017-10-12T13:51:46.040Z,69.20
2017-10-12T13:54:13.222Z,68.40
2017-10-12T13:56:40.348Z,68.40
2017-10-12T13:59:06.794Z,68.20
2017-10-12T14:01:34.793Z,69.50
2017-10-12T14:04:01.230Z,68.80
2017-10-12T14:06:28.247Z,68.50
2017-10-12T14:08:54.512Z,68.40
2017-10-12T14:11:22.487Z,69.10
2017-10-12T14:13:49.300Z,69.00
2017-10-12T14:16:16.215Z,68.90
2017-10-12T14:18:43.177Z,69.10
2017-10-12T14:21:09.420Z,69.00
2017-10-12T14:23:35.875Z,69.00
2017-10-12T14:26:02.078Z,69.30
2017-10-12T14:28:28.387Z,69.50
2017-10-12T14:30:54.577Z,68.70
2017-10-12T14:33:21.000Z,68.80
2017-10-12T14:35:48.059Z,69.00
2017-10-12T14:38:14.708Z,69.00
2017-10-12T14:40:41.649Z,69.60
2017-10-12T14:43:08.670Z,69.80
2017-10-12T14:45:35.376Z,69.60
2017-10-12T14:48:01.878Z,69.60
2017-10-12T14:50:29.547Z,69.60
2017-10-12T14:52:56.514Z,69.70
2017-10-12T14:55:22.740Z,69.60
2017-10-12T14:57:50.417Z,69.90
2017-10-12T15:00:17.183Z,70.30
2017-10-12T15:02:43.428Z,70.20
2017-10-12T15:05:10.689Z,70.20
2017-10-12T15:07:38.449Z,69.80
2017-10-12T15:10:05.438Z,69.80
2017-10-12T15:12:32.296Z,69.80
2017-10-12T15:14:59.140Z,69.80
2017-10-12T15:17:25.492Z,69.80
2017-10-12T15:19:51.700Z,69.70
2017-10-12T15:22:18.357Z,69.50
2017-10-12T15:24:44.627Z,69.40
2017-10-12T15:27:11.022Z,68.60
2017-10-12T15:29:37.700Z,68.20
2017-10-12T15:32:05.686Z,68.40
2017-10-12T15:34:32.139Z,68.30
2017-10-12T15:36:58.332Z,67.80
2017-10-12T15:39:24.559Z,67.30
2017-10-12T15:41:52.914Z,67.40
2017-10-12T15:44:19.885Z,67.60
2017-10-12T15:46:46.247Z,67.20
2017-10-12T15:49:12.557Z,67.00
2017-10-12T15:51:39.798Z,66.80
2017-10-12T15:54:06.408Z,67.00
2017-10-12T15:56:34.010Z,67.40
2017-10-12T15:59:00.492Z,67.30
2017-10-12T16:01:28.163Z,67.20
2017-10-12T16:03:55.645Z,67.00
2017-10-12T16:06:21.902Z,67.00
2017-10-12T16:08:48.191Z,67.00
2017-10-12T16:11:16.387Z,66.50
2017-10-12T16:13:42.704Z,66.00
2017-10-12T16:16:09.731Z,66.40
2017-10-12T16:18:37.213Z,66.20
2017-10-12T16:21:04.284Z,65.80
2017-10-12T16:23:31.191Z,65.80
2017-10-12T16:25:58.323Z,66.30
2017-10-12T16:28:25.192Z,66.30
2017-10-12T16:30:51.407Z,65.70
2017-10-12T16:33:18.717Z,66.80
2017-10-12T16:35:45.648Z,66.80
2017-10-12T16:38:12.987Z,66.90
2017-10-12T16:40:40.058Z,66.80
2017-10-12T16:43:06.727Z,66.80
2017-10-12T16:45:32.921Z,66.80
2017-10-12T16:47:59.345Z,67.00
2017-10-12T16:50:56.112Z,66.90
2017-10-12T16:52:54.443Z,66.90
2017-10-12T16:55:20.702Z,66.50
2017-10-12T16:57:48.218Z,67.10
2017-10-12T17:00:15.508Z,66.60
2017-10-12T17:02:42.508Z,66.60
2017-10-12T17:05:09.243Z,66.60
2017-10-12T17:07:36.860Z,67.00
2017-10-12T17:10:04.814Z,67.00
2017-10-12T17:12:31.285Z,67.20
2017-10-12T17:14:57.798Z,67.30
2017-10-12T17:17:24.132Z,67.20
2017-10-12T17:19:50.542Z,67.60
2017-10-12T17:22:17.356Z,67.40
2017-10-12T17:24:45.430Z,67.70
2017-10-12T17:27:14.420Z,67.70
2017-10-12T17:29:41.344Z,67.70
2017-10-12T17:32:07.798Z,67.80
2017-10-12T17:34:34.242Z,67.60
2017-10-12T17:37:01.848Z,67.60
2017-10-12T17:39:28.288Z,67.50
2017-10-12T17:41:54.811Z,67.70
2017-10-12T17:44:22.521Z,68.00
2017-10-12T17:46:50.251Z,68.20
2017-10-12T17:49:16.872Z,68.00
2017-10-12T17:51:44.574Z,67.80
2017-10-12T17:54:39.187Z,68.40
2017-10-12T17:56:39.131Z,68.40
2017-10-12T18:01:34.828Z,68.80
2017-10-12T18:04:01.554Z,69.00
2017-10-12T18:06:28.123Z,70.60
2017-10-12T18:08:54.468Z,71.70
2017-10-12T18:11:21.426Z,72.00
2017-10-12T18:13:48.612Z,70.70
2017-10-12T18:16:15.153Z,70.70
2017-10-12T18:18:42.998Z,70.20
2017-10-12T18:21:10.823Z,70.20
2017-10-12T18:23:38.294Z,71.00
2017-10-12T18:26:06.193Z,70.50
2017-10-12T18:28:34.228Z,71.20
2017-10-12T18:31:01.745Z,70.60
2017-10-12T18:33:28.156Z,70.60
2017-10-12T18:35:55.035Z,70.40
2017-10-12T18:38:21.335Z,70.30
2017-10-12T18:40:48.125Z,71.40
2017-10-12T18:43:14.451Z,72.90
2017-10-12T18:45:41.906Z,73.70
2017-10-12T18:48:09.399Z,73.30
2017-10-12T18:50:37.366Z,73.30
2017-10-12T18:53:04.139Z,73.20
2017-10-12T18:55:30.464Z,72.60
2017-10-12T18:57:56.771Z,72.50
2017-10-12T19:00:23.754Z,73.10
2017-10-12T19:02:50.906Z,73.00
2017-10-12T19:05:18.193Z,72.60
2017-10-12T19:07:45.464Z,72.70
2017-10-12T19:10:12.969Z,72.30
2017-10-12T19:12:39.195Z,72.30
2017-10-12T19:15:05.594Z,72.50
2017-10-12T19:17:31.879Z,73.70
2017-10-12T19:19:58.749Z,73.10
2017-10-12T19:22:25.295Z,73.60
2017-10-12T19:24:52.954Z,72.50
2017-10-12T19:27:20.650Z,72.60
2017-10-12T19:29:47.923Z,74.30
2017-10-12T19:32:14.959Z,74.20
2017-10-12T19:34:41.242Z,74.10
2017-10-12T19:37:09.202Z,73.30
2017-10-12T19:39:35.928Z,73.20
2017-10-12T19:42:03.100Z,72.80
2017-10-12T19:44:31.003Z,73.10
2017-10-12T19:46:57.789Z,73.10
2017-10-12T19:49:23.999Z,73.20
2017-10-12T19:51:50.222Z,73.20
2017-10-12T19:54:16.664Z,75.80
2017-10-12T19:56:44.157Z,74.90
2017-10-12T19:59:10.572Z,74.80
2017-10-12T20:01:37.623Z,74.50
2017-10-12T20:04:04.410Z,74.50
2017-10-12T20:06:31.045Z,74.40
2017-10-12T20:08:58.489Z,74.70
2017-10-12T20:11:24.712Z,74.50
2017-10-12T20:14:20.758Z,75.40
2017-10-12T20:16:18.808Z,74.60
2017-10-12T20:18:45.147Z,74.50
2017-10-12T20:21:11.646Z,74.40
2017-10-12T20:23:38.530Z,73.90
2017-10-12T20:26:06.365Z,74.50
2017-10-12T20:28:33.183Z,75.20
2017-10-12T20:30:59.892Z,75.60
2017-10-12T20:33:26.481Z,76.90
2017-10-12T20:35:54.834Z,77.30
2017-10-12T20:38:21.041Z,76.10
2017-10-12T20:40:47.656Z,75.20
2017-10-12T20:43:14.782Z,74.80
2017-10-12T20:45:41.861Z,75.20
2017-10-12T20:48:08.158Z,75.10
2017-10-12T20:50:35.134Z,76.40
2017-10-12T20:53:01.484Z,76.40
2017-10-12T20:55:27.694Z,77.50
2017-10-12T20:57:54.466Z,77.10
2017-10-12T21:00:21.012Z,77.20
2017-10-12T21:05:14.117Z,77.60
2017-10-12T21:07:41.122Z,75.60
2017-10-12T21:10:07.377Z,75.60
2017-10-12T21:12:34.406Z,76.70
2017-10-12T21:15:00.763Z,76.60
2017-10-12T21:17:29.202Z,75.70
2017-10-12T21:19:55.500Z,75.50
2017-10-12T21:22:22.106Z,75.80
2017-10-12T21:24:49.601Z,77.80
2017-10-12T21:27:15.948Z,77.70
2017-10-12T21:29:42.963Z,76.70
2017-10-12T21:32:09.231Z,76.70
2017-10-12T21:34:35.998Z,78.10
2017-10-12T21:37:02.332Z,77.50
2017-10-12T21:39:29.323Z,77.70
2017-10-12T21:41:55.771Z,78.10
2017-10-12T21:44:22.983Z,79.80
2017-10-12T21:46:50.097Z,79.90
2017-10-12T21:49:16.338Z,79.80
2017-10-12T21:51:44.045Z,79.10
2017-10-12T21:54:10.277Z,78.90
2017-10-12T21:56:36.861Z,78.20
2017-10-12T21:59:03.851Z,76.80
2017-10-12T22:01:30.896Z,76.80
2017-10-12T22:03:57.150Z,76.90
2017-10-12T22:06:23.887Z,77.00
2017-10-12T22:08:50.118Z,76.40
2017-10-12T22:11:16.347Z,76.60
2017-10-12T22:13:42.961Z,76.40
2017-10-12T22:16:10.666Z,78.40
2017-10-12T22:18:38.663Z,78.40
2017-10-12T22:21:05.916Z,77.80
2017-10-12T22:23:34.118Z,79.30
2017-10-12T22:26:00.661Z,79.30
2017-10-12T22:28:28.161Z,79.20
2017-10-12T22:30:55.695Z,80.20
2017-10-12T22:33:21.942Z,80.10
2017-10-12T22:35:48.855Z,78.70
2017-10-12T22:38:15.180Z,79.40
2017-10-12T22:40:42.294Z,80.90
2017-10-12T22:43:09.321Z,78.60
2017-10-12T22:45:35.550Z,78.60
2017-10-12T22:48:01.771Z,79.50
2017-10-12T22:50:28.010Z,79.10
2017-10-12T22:52:54.772Z,79.70
2017-10-12T22:55:20.956Z,79.50
2017-10-12T22:57:47.175Z,79.60
2017-10-12T23:00:13.819Z,78.80
2017-10-12T23:02:41.705Z,79.90
2017-10-12T23:05:07.932Z,79.80
2017-10-12T23:07:35.112Z,79.50
2017-10-12T23:10:01.343Z,78.70
2017-10-12T23:12:28.488Z,79.30
2017-10-12T23:14:54.716Z,78.30
2017-10-12T23:17:20.913Z,79.60
2017-10-12T23:19:48.624Z,78.50
2017-10-12T23:22:16.231Z,77.70
2017-10-12T23:24:43.294Z,77.60
2017-10-12T23:27:10.625Z,76.70
2017-10-12T23:29:38.207Z,77.00
2017-10-12T23:32:06.104Z,77.20
2017-10-12T23:34:32.566Z,77.20
2017-10-12T23:36:59.531Z,77.30
2017-10-12T23:39:25.734Z,77.20
2017-10-12T23:41:51.976Z,77.40
2017-10-12T23:44:19.822Z,77.40
2017-10-12T23:46:46.794Z,77.00
2017-10-12T23:49:14.420Z,78.70
2017-10-12T23:51:41.652Z,78.70
2017-10-12T23:54:08.107Z,79.30
2017-10-12T23:56:34.847Z,78.40
2017-10-12T23:59:01.049Z,77.60
